sensor_id;sensor_type;location;lat;lon;timestamp;P1;durP1;ratioP1;P2;durP2;ratioP2
76667;SDS011;65585;51.166;16.922;2024-02-14T00:00:07;32.05;;;15.65;;
76667;SDS011;65585;51.166;16.922;2024-02-14T00:02:59;27.73;;;13.50;;
76667;SDS011;65585;51.166;16.922;2024-02-14T00:05:24;23.52;;;12.82;;
76667;SDS011;65585;51.166;16.922;2024-02-14T00:07:52;28.50;;;14.60;;
76667;SDS011;65585;51.166;16.922;2024-02-14T00:10:18;25.00;;;13.98;;
76667;SDS011;65585;51.166;16.922;2024-02-14T00:12:44;26.10;;;14.32;;
76667;SDS011;65585;51.166;16.922;2024-02-14T00:15:10;23.27;;;13.52;;
76667;SDS011;65585;51.166;16.922;2024-02-14T00:17:36;27.80;;;13.95;;
76667;SDS011;65585;51.166;16.922;2024-02-14T00:20:02;28.00;;;12.40;;
76667;SDS011;65585;51.166;16.922;2024-02-14T00:22:29;32.33;;;15.82;;
76667;SDS011;65585;51.166;16.922;2024-02-14T00:24:56;29.40;;;15.15;;
76667;SDS011;65585;51.166;16.922;2024-02-14T00:27:22;29.15;;;13.85;;
76667;SDS011;65585;51.166;16.922;2024-02-14T00:29:48;26.85;;;15.40;;
76667;SDS011;65585;51.166;16.922;2024-02-14T00:32:14;34.30;;;17.65;;
76667;SDS011;65585;51.166;16.922;2024-02-14T00:34:40;36.17;;;18.58;;
76667;SDS011;65585;51.166;16.922;2024-02-14T00:37:06;32.30;;;16.77;;
76667;SDS011;65585;51.166;16.922;2024-02-14T00:39:32;28.52;;;16.20;;
76667;SDS011;65585;51.166;16.922;2024-02-14T00:41:58;26.17;;;14.73;;
76667;SDS011;65585;51.166;16.922;2024-02-14T00:44:24;30.85;;;15.90;;
76667;SDS011;65585;51.166;16.922;2024-02-14T00:46:57;37.38;;;17.55;;
76667;SDS011;65585;51.166;16.922;2024-02-14T00:49:25;30.63;;;15.43;;
76667;SDS011;65585;51.166;16.922;2024-02-14T00:51:51;30.23;;;16.45;;
76667;SDS011;65585;51.166;16.922;2024-02-14T00:54:17;32.75;;;16.30;;
76667;SDS011;65585;51.166;16.922;2024-02-14T00:56:43;27.63;;;15.55;;
76667;SDS011;65585;51.166;16.922;2024-02-14T00:59:09;31.42;;;15.43;;
76667;SDS011;65585;51.166;16.922;2024-02-14T01:01:35;37.08;;;16.88;;
76667;SDS011;65585;51.166;16.922;2024-02-14T01:04:01;29.95;;;15.82;;
76667;SDS011;65585;51.166;16.922;2024-02-14T01:06:29;28.40;;;15.80;;
76667;SDS011;65585;51.166;16.922;2024-02-14T01:08:56;31.15;;;15.80;;
76667;SDS011;65585;51.166;16.922;2024-02-14T01:11:22;32.20;;;15.93;;
76667;SDS011;65585;51.166;16.922;2024-02-14T01:13:47;37.00;;;18.55;;
76667;SDS011;65585;51.166;16.922;2024-02-14T01:16:13;34.95;;;17.90;;
76667;SDS011;65585;51.166;16.922;2024-02-14T01:18:39;30.48;;;16.17;;
76667;SDS011;65585;51.166;16.922;2024-02-14T01:21:05;33.88;;;17.67;;
76667;SDS011;65585;51.166;16.922;2024-02-14T01:23:32;32.38;;;17.30;;
76667;SDS011;65585;51.166;16.922;2024-02-14T01:25:58;31.70;;;16.67;;
76667;SDS011;65585;51.166;16.922;2024-02-14T01:28:24;32.03;;;17.65;;
76667;SDS011;65585;51.166;16.922;2024-02-14T01:30:51;34.90;;;17.42;;
76667;SDS011;65585;51.166;16.922;2024-02-14T01:33:17;31.55;;;16.55;;
76667;SDS011;65585;51.166;16.922;2024-02-14T01:35:43;35.25;;;16.77;;
76667;SDS011;65585;51.166;16.922;2024-02-14T01:38:09;36.88;;;19.02;;
76667;SDS011;65585;51.166;16.922;2024-02-14T01:43:03;33.20;;;16.55;;
76667;SDS011;65585;51.166;16.922;2024-02-14T01:45:29;36.80;;;17.08;;
76667;SDS011;65585;51.166;16.922;2024-02-14T01:47:55;36.60;;;17.33;;
76667;SDS011;65585;51.166;16.922;2024-02-14T01:50:22;35.70;;;16.63;;
76667;SDS011;65585;51.166;16.922;2024-02-14T01:52:56;35.55;;;18.20;;
76667;SDS011;65585;51.166;16.922;2024-02-14T01:55:25;33.15;;;16.77;;
76667;SDS011;65585;51.166;16.922;2024-02-14T01:57:53;30.92;;;16.23;;
76667;SDS011;65585;51.166;16.922;2024-02-14T02:00:22;33.10;;;16.35;;
76667;SDS011;65585;51.166;16.922;2024-02-14T02:02:49;31.05;;;16.98;;
76667;SDS011;65585;51.166;16.922;2024-02-14T02:05:15;35.67;;;15.98;;
76667;SDS011;65585;51.166;16.922;2024-02-14T02:07:42;33.45;;;16.58;;
76667;SDS011;65585;51.166;16.922;2024-02-14T02:10:10;32.42;;;17.35;;
76667;SDS011;65585;51.166;16.922;2024-02-14T02:12:37;33.10;;;16.02;;
76667;SDS011;65585;51.166;16.922;2024-02-14T02:15:07;34.88;;;16.58;;
76667;SDS011;65585;51.166;16.922;2024-02-14T02:17:38;34.58;;;18.20;;
76667;SDS011;65585;51.166;16.922;2024-02-14T02:20:05;37.50;;;18.55;;
76667;SDS011;65585;51.166;16.922;2024-02-14T02:22:34;38.05;;;20.20;;
76667;SDS011;65585;51.166;16.922;2024-02-14T02:25:04;31.55;;;16.65;;
76667;SDS011;65585;51.166;16.922;2024-02-14T02:27:33;33.45;;;17.58;;
76667;SDS011;65585;51.166;16.922;2024-02-14T02:30:06;34.33;;;18.17;;
76667;SDS011;65585;51.166;16.922;2024-02-14T02:32:33;38.50;;;18.92;;
76667;SDS011;65585;51.166;16.922;2024-02-14T02:35:00;35.08;;;16.55;;
76667;SDS011;65585;51.166;16.922;2024-02-14T02:37:26;35.25;;;18.73;;
76667;SDS011;65585;51.166;16.922;2024-02-14T02:39:55;33.78;;;18.05;;
76667;SDS011;65585;51.166;16.922;2024-02-14T02:42:22;36.72;;;19.20;;
76667;SDS011;65585;51.166;16.922;2024-02-14T02:44:51;32.00;;;17.70;;
76667;SDS011;65585;51.166;16.922;2024-02-14T02:47:17;42.92;;;20.92;;
76667;SDS011;65585;51.166;16.922;2024-02-14T02:49:43;37.00;;;17.63;;
76667;SDS011;65585;51.166;16.922;2024-02-14T02:52:10;35.58;;;17.90;;
76667;SDS011;65585;51.166;16.922;2024-02-14T02:54:37;34.15;;;19.17;;
76667;SDS011;65585;51.166;16.922;2024-02-14T02:57:07;41.75;;;19.77;;
76667;SDS011;65585;51.166;16.922;2024-02-14T02:59:34;35.80;;;17.52;;
76667;SDS011;65585;51.166;16.922;2024-02-14T03:02:01;35.53;;;19.05;;
76667;SDS011;65585;51.166;16.922;2024-02-14T03:04:28;38.58;;;19.00;;
76667;SDS011;65585;51.166;16.922;2024-02-14T03:06:54;40.53;;;19.10;;
76667;SDS011;65585;51.166;16.922;2024-02-14T03:09:21;38.85;;;19.60;;
76667;SDS011;65585;51.166;16.922;2024-02-14T03:11:47;45.50;;;19.75;;
76667;SDS011;65585;51.166;16.922;2024-02-14T03:14:14;41.55;;;18.90;;
76667;SDS011;65585;51.166;16.922;2024-02-14T03:16:40;44.85;;;20.45;;
76667;SDS011;65585;51.166;16.922;2024-02-14T03:19:06;37.65;;;18.77;;
76667;SDS011;65585;51.166;16.922;2024-02-14T03:21:32;31.70;;;17.85;;
76667;SDS011;65585;51.166;16.922;2024-02-14T03:26:28;37.08;;;16.45;;
76667;SDS011;65585;51.166;16.922;2024-02-14T03:28:54;43.45;;;19.88;;
76667;SDS011;65585;51.166;16.922;2024-02-14T03:31:20;43.83;;;19.17;;
76667;SDS011;65585;51.166;16.922;2024-02-14T03:33:46;42.58;;;19.73;;
76667;SDS011;65585;51.166;16.922;2024-02-14T03:36:12;45.53;;;21.75;;
76667;SDS011;65585;51.166;16.922;2024-02-14T03:38:38;41.22;;;19.67;;
76667;SDS011;65585;51.166;16.922;2024-02-14T03:41:06;46.47;;;20.58;;
76667;SDS011;65585;51.166;16.922;2024-02-14T03:43:33;38.10;;;19.85;;
76667;SDS011;65585;51.166;16.922;2024-02-14T03:45:59;38.95;;;18.17;;
76667;SDS011;65585;51.166;16.922;2024-02-14T03:48:25;40.60;;;19.15;;
76667;SDS011;65585;51.166;16.922;2024-02-14T03:50:51;43.20;;;20.20;;
76667;SDS011;65585;51.166;16.922;2024-02-14T03:53:17;41.22;;;19.98;;
76667;SDS011;65585;51.166;16.922;2024-02-14T03:55:43;47.47;;;21.35;;
76667;SDS011;65585;51.166;16.922;2024-02-14T03:58:09;43.85;;;20.83;;
76667;SDS011;65585;51.166;16.922;2024-02-14T04:00:35;45.30;;;19.95;;
76667;SDS011;65585;51.166;16.922;2024-02-14T04:03:01;44.97;;;20.60;;
76667;SDS011;65585;51.166;16.922;2024-02-14T04:05:28;42.90;;;20.25;;
76667;SDS011;65585;51.166;16.922;2024-02-14T04:07:55;44.88;;;20.48;;
76667;SDS011;65585;51.166;16.922;2024-02-14T04:10:21;46.38;;;21.92;;
76667;SDS011;65585;51.166;16.922;2024-02-14T04:12:48;37.15;;;20.65;;
76667;SDS011;65585;51.166;16.922;2024-02-14T04:15:13;41.53;;;19.00;;
76667;SDS011;65585;51.166;16.922;2024-02-14T04:17:39;36.70;;;19.10;;
76667;SDS011;65585;51.166;16.922;2024-02-14T04:20:06;42.20;;;20.92;;
76667;SDS011;65585;51.166;16.922;2024-02-14T04:22:32;45.63;;;20.38;;
76667;SDS011;65585;51.166;16.922;2024-02-14T04:24:58;41.50;;;20.20;;
76667;SDS011;65585;51.166;16.922;2024-02-14T04:27:25;43.30;;;21.98;;
76667;SDS011;65585;51.166;16.922;2024-02-14T04:29:51;44.05;;;21.65;;
76667;SDS011;65585;51.166;16.922;2024-02-14T04:32:17;41.17;;;20.83;;
76667;SDS011;65585;51.166;16.922;2024-02-14T04:34:45;52.92;;;23.67;;
76667;SDS011;65585;51.166;16.922;2024-02-14T04:37:11;45.80;;;23.00;;
76667;SDS011;65585;51.166;16.922;2024-02-14T04:39:39;44.42;;;22.27;;
76667;SDS011;65585;51.166;16.922;2024-02-14T04:42:05;44.33;;;21.30;;
76667;SDS011;65585;51.166;16.922;2024-02-14T04:44:31;41.88;;;20.92;;
76667;SDS011;65585;51.166;16.922;2024-02-14T04:47:00;42.25;;;21.58;;
76667;SDS011;65585;51.166;16.922;2024-02-14T04:49:26;52.35;;;24.25;;
76667;SDS011;65585;51.166;16.922;2024-02-14T04:51:55;51.85;;;23.77;;
76667;SDS011;65585;51.166;16.922;2024-02-14T04:54:20;48.13;;;24.85;;
76667;SDS011;65585;51.166;16.922;2024-02-14T04:56:46;50.38;;;23.45;;
76667;SDS011;65585;51.166;16.922;2024-02-14T04:59:12;46.60;;;22.92;;
76667;SDS011;65585;51.166;16.922;2024-02-14T05:01:39;49.80;;;23.27;;
76667;SDS011;65585;51.166;16.922;2024-02-14T05:04:08;48.17;;;24.35;;
76667;SDS011;65585;51.166;16.922;2024-02-14T05:06:34;48.72;;;23.40;;
76667;SDS011;65585;51.166;16.922;2024-02-14T05:09:01;50.15;;;25.60;;
76667;SDS011;65585;51.166;16.922;2024-02-14T05:11:28;58.85;;;25.98;;
76667;SDS011;65585;51.166;16.922;2024-02-14T05:13:53;48.85;;;24.63;;
76667;SDS011;65585;51.166;16.922;2024-02-14T05:16:20;48.38;;;24.60;;
76667;SDS011;65585;51.166;16.922;2024-02-14T05:18:46;56.42;;;25.42;;
76667;SDS011;65585;51.166;16.922;2024-02-14T05:21:13;48.45;;;24.73;;
76667;SDS011;65585;51.166;16.922;2024-02-14T05:23:39;54.30;;;25.25;;
76667;SDS011;65585;51.166;16.922;2024-02-14T05:26:05;51.17;;;25.13;;
76667;SDS011;65585;51.166;16.922;2024-02-14T05:28:31;50.08;;;24.02;;
76667;SDS011;65585;51.166;16.922;2024-02-14T05:30:59;56.67;;;25.65;;
76667;SDS011;65585;51.166;16.922;2024-02-14T05:33:25;48.70;;;25.63;;
76667;SDS011;65585;51.166;16.922;2024-02-14T05:35:52;51.22;;;25.35;;
76667;SDS011;65585;51.166;16.922;2024-02-14T05:38:18;52.95;;;25.00;;
76667;SDS011;65585;51.166;16.922;2024-02-14T05:40:47;49.95;;;24.67;;
76667;SDS011;65585;51.166;16.922;2024-02-14T05:43:14;49.55;;;24.55;;
76667;SDS011;65585;51.166;16.922;2024-02-14T05:45:41;53.03;;;26.15;;
76667;SDS011;65585;51.166;16.922;2024-02-14T05:48:07;45.28;;;24.30;;
76667;SDS011;65585;51.166;16.922;2024-02-14T05:50:34;63.42;;;26.85;;
76667;SDS011;65585;51.166;16.922;2024-02-14T05:53:00;54.95;;;26.77;;
76667;SDS011;65585;51.166;16.922;2024-02-14T05:55:27;53.78;;;26.58;;
76667;SDS011;65585;51.166;16.922;2024-02-14T05:57:53;58.63;;;28.20;;
76667;SDS011;65585;51.166;16.922;2024-02-14T06:00:19;53.03;;;28.15;;
76667;SDS011;65585;51.166;16.922;2024-02-14T06:02:49;54.10;;;25.70;;
76667;SDS011;65585;51.166;16.922;2024-02-14T06:05:17;57.13;;;28.58;;
76667;SDS011;65585;51.166;16.922;2024-02-14T06:07:43;60.20;;;27.02;;
76667;SDS011;65585;51.166;16.922;2024-02-14T06:10:12;53.67;;;23.98;;
76667;SDS011;65585;51.166;16.922;2024-02-14T06:12:39;64.97;;;28.17;;
76667;SDS011;65585;51.166;16.922;2024-02-14T06:15:09;53.92;;;25.77;;
76667;SDS011;65585;51.166;16.922;2024-02-14T06:17:35;62.08;;;29.83;;
76667;SDS011;65585;51.166;16.922;2024-02-14T06:20:01;56.78;;;29.08;;
76667;SDS011;65585;51.166;16.922;2024-02-14T06:22:32;59.15;;;29.40;;
76667;SDS011;65585;51.166;16.922;2024-02-14T06:24:59;55.40;;;28.35;;
76667;SDS011;65585;51.166;16.922;2024-02-14T06:27:26;66.05;;;28.98;;
76667;SDS011;65585;51.166;16.922;2024-02-14T06:29:53;58.05;;;27.58;;
76667;SDS011;65585;51.166;16.922;2024-02-14T06:32:19;62.35;;;29.67;;
76667;SDS011;65585;51.166;16.922;2024-02-14T06:34:45;54.20;;;29.50;;
76667;SDS011;65585;51.166;16.922;2024-02-14T06:37:11;57.75;;;27.52;;
76667;SDS011;65585;51.166;16.922;2024-02-14T06:39:37;60.35;;;27.10;;
76667;SDS011;65585;51.166;16.922;2024-02-14T06:42:02;60.20;;;28.70;;
76667;SDS011;65585;51.166;16.922;2024-02-14T06:44:29;57.90;;;27.58;;
76667;SDS011;65585;51.166;16.922;2024-02-14T06:46:55;54.67;;;26.45;;
76667;SDS011;65585;51.166;16.922;2024-02-14T06:49:21;60.55;;;27.13;;
76667;SDS011;65585;51.166;16.922;2024-02-14T06:51:47;48.50;;;25.98;;
76667;SDS011;65585;51.166;16.922;2024-02-14T06:54:13;58.88;;;27.83;;
76667;SDS011;65585;51.166;16.922;2024-02-14T06:56:39;53.92;;;26.58;;
76667;SDS011;65585;51.166;16.922;2024-02-14T06:59:05;59.28;;;27.67;;
76667;SDS011;65585;51.166;16.922;2024-02-14T07:01:30;48.67;;;26.33;;
76667;SDS011;65585;51.166;16.922;2024-02-14T07:03:58;47.78;;;25.00;;
76667;SDS011;65585;51.166;16.922;2024-02-14T07:06:24;49.08;;;25.02;;
76667;SDS011;65585;51.166;16.922;2024-02-14T07:08:50;53.55;;;26.65;;
76667;SDS011;65585;51.166;16.922;2024-02-14T07:11:16;46.92;;;24.38;;
76667;SDS011;65585;51.166;16.922;2024-02-14T07:13:42;53.47;;;24.67;;
76667;SDS011;65585;51.166;16.922;2024-02-14T07:16:11;56.08;;;26.58;;
76667;SDS011;65585;51.166;16.922;2024-02-14T07:18:38;56.55;;;27.10;;
76667;SDS011;65585;51.166;16.922;2024-02-14T07:21:04;57.28;;;28.77;;
76667;SDS011;65585;51.166;16.922;2024-02-14T07:23:31;53.67;;;28.02;;
76667;SDS011;65585;51.166;16.922;2024-02-14T07:26:01;60.13;;;28.70;;
76667;SDS011;65585;51.166;16.922;2024-02-14T07:28:28;54.97;;;27.35;;
76667;SDS011;65585;51.166;16.922;2024-02-14T07:30:53;62.25;;;29.65;;
76667;SDS011;65585;51.166;16.922;2024-02-14T07:33:20;58.47;;;29.65;;
76667;SDS011;65585;51.166;16.922;2024-02-14T07:35:46;58.47;;;28.92;;
76667;SDS011;65585;51.166;16.922;2024-02-14T07:38:16;59.05;;;28.13;;
76667;SDS011;65585;51.166;16.922;2024-02-14T07:40:42;55.15;;;25.40;;
76667;SDS011;65585;51.166;16.922;2024-02-14T07:43:09;58.42;;;27.95;;
76667;SDS011;65585;51.166;16.922;2024-02-14T07:45:35;61.83;;;26.15;;
76667;SDS011;65585;51.166;16.922;2024-02-14T07:48:01;61.05;;;28.73;;
76667;SDS011;65585;51.166;16.922;2024-02-14T07:50:28;51.05;;;26.13;;
76667;SDS011;65585;51.166;16.922;2024-02-14T07:52:54;57.60;;;28.85;;
76667;SDS011;65585;51.166;16.922;2024-02-14T07:55:20;63.95;;;30.73;;
76667;SDS011;65585;51.166;16.922;2024-02-14T07:57:47;64.45;;;29.73;;
76667;SDS011;65585;51.166;16.922;2024-02-14T08:00:13;59.83;;;28.30;;
76667;SDS011;65585;51.166;16.922;2024-02-14T08:02:44;56.40;;;29.63;;
76667;SDS011;65585;51.166;16.922;2024-02-14T08:05:10;64.05;;;30.15;;
76667;SDS011;65585;51.166;16.922;2024-02-14T08:07:36;60.05;;;30.40;;
76667;SDS011;65585;51.166;16.922;2024-02-14T08:10:02;62.70;;;30.05;;
76667;SDS011;65585;51.166;16.922;2024-02-14T08:12:29;55.10;;;27.63;;
76667;SDS011;65585;51.166;16.922;2024-02-14T08:14:55;45.22;;;18.77;;
76667;SDS011;65585;51.166;16.922;2024-02-14T08:17:21;31.00;;;16.25;;
76667;SDS011;65585;51.166;16.922;2024-02-14T08:19:47;38.88;;;16.55;;
76667;SDS011;65585;51.166;16.922;2024-02-14T08:22:13;33.13;;;16.58;;
76667;SDS011;65585;51.166;16.922;2024-02-14T08:24:39;32.38;;;16.80;;
76667;SDS011;65585;51.166;16.922;2024-02-14T08:27:06;36.08;;;16.85;;
76667;SDS011;65585;51.166;16.922;2024-02-14T08:29:32;35.83;;;17.02;;
76667;SDS011;65585;51.166;16.922;2024-02-14T08:31:58;35.42;;;16.98;;
76667;SDS011;65585;51.166;16.922;2024-02-14T08:34:24;36.35;;;16.83;;
76667;SDS011;65585;51.166;16.922;2024-02-14T08:36:53;35.13;;;18.70;;
76667;SDS011;65585;51.166;16.922;2024-02-14T08:39:19;41.20;;;19.55;;
76667;SDS011;65585;51.166;16.922;2024-02-14T08:41:45;34.05;;;16.92;;
76667;SDS011;65585;51.166;16.922;2024-02-14T08:44:21;33.13;;;16.67;;
76667;SDS011;65585;51.166;16.922;2024-02-14T08:46:50;38.42;;;18.48;;
76667;SDS011;65585;51.166;16.922;2024-02-14T08:49:16;36.50;;;17.52;;
76667;SDS011;65585;51.166;16.922;2024-02-14T08:51:42;36.88;;;17.77;;
76667;SDS011;65585;51.166;16.922;2024-02-14T08:54:11;38.90;;;17.42;;
76667;SDS011;65585;51.166;16.922;2024-02-14T08:56:37;35.90;;;17.88;;
76667;SDS011;65585;51.166;16.922;2024-02-14T08:59:03;36.05;;;17.25;;
76667;SDS011;65585;51.166;16.922;2024-02-14T09:01:31;28.63;;;15.68;;
76667;SDS011;65585;51.166;16.922;2024-02-14T09:03:57;33.97;;;15.90;;
76667;SDS011;65585;51.166;16.922;2024-02-14T09:06:25;25.60;;;14.95;;
76667;SDS011;65585;51.166;16.922;2024-02-14T09:08:51;22.08;;;13.38;;
76667;SDS011;65585;51.166;16.922;2024-02-14T09:11:18;24.02;;;13.57;;
76667;SDS011;65585;51.166;16.922;2024-02-14T09:13:45;23.48;;;13.75;;
76667;SDS011;65585;51.166;16.922;2024-02-14T09:16:13;21.58;;;12.80;;
76667;SDS011;65585;51.166;16.922;2024-02-14T09:18:41;22.88;;;12.80;;
76667;SDS011;65585;51.166;16.922;2024-02-14T09:21:08;25.58;;;12.95;;
76667;SDS011;65585;51.166;16.922;2024-02-14T09:23:34;21.85;;;11.63;;
76667;SDS011;65585;51.166;16.922;2024-02-14T09:26:00;15.20;;;10.15;;
76667;SDS011;65585;51.166;16.922;2024-02-14T09:28:26;18.77;;;10.07;;
76667;SDS011;65585;51.166;16.922;2024-02-14T09:30:53;21.70;;;9.95;;
76667;SDS011;65585;51.166;16.922;2024-02-14T09:33:23;17.38;;;9.23;;
76667;SDS011;65585;51.166;16.922;2024-02-14T09:35:49;18.85;;;9.32;;
76667;SDS011;65585;51.166;16.922;2024-02-14T09:38:17;14.77;;;9.25;;
76667;SDS011;65585;51.166;16.922;2024-02-14T09:40:43;27.45;;;9.52;;
76667;SDS011;65585;51.166;16.922;2024-02-14T09:43:28;13.77;;;8.98;;
76667;SDS011;65585;51.166;16.922;2024-02-14T09:45:58;18.25;;;8.50;;
76667;SDS011;65585;51.166;16.922;2024-02-14T09:48:24;13.57;;;8.55;;
76667;SDS011;65585;51.166;16.922;2024-02-14T09:53:18;13.77;;;8.65;;
76667;SDS011;65585;51.166;16.922;2024-02-14T09:55:46;12.50;;;7.55;;
76667;SDS011;65585;51.166;16.922;2024-02-14T09:58:11;12.73;;;6.93;;
76667;SDS011;65585;51.166;16.922;2024-02-14T10:00:38;11.15;;;7.05;;
76667;SDS011;65585;51.166;16.922;2024-02-14T10:03:06;14.65;;;7.63;;
76667;SDS011;65585;51.166;16.922;2024-02-14T10:05:34;12.40;;;7.25;;
76667;SDS011;65585;51.166;16.922;2024-02-14T10:08:00;12.63;;;7.10;;
76667;SDS011;65585;51.166;16.922;2024-02-14T10:10:27;11.02;;;6.43;;
76667;SDS011;65585;51.166;16.922;2024-02-14T10:12:56;9.80;;;6.18;;
76667;SDS011;65585;51.166;16.922;2024-02-14T10:15:22;9.30;;;5.70;;
76667;SDS011;65585;51.166;16.922;2024-02-14T10:17:48;8.85;;;5.28;;
76667;SDS011;65585;51.166;16.922;2024-02-14T10:20:17;13.07;;;6.55;;
76667;SDS011;65585;51.166;16.922;2024-02-14T10:22:45;8.02;;;5.70;;
76667;SDS011;65585;51.166;16.922;2024-02-14T10:25:11;8.63;;;5.93;;
76667;SDS011;65585;51.166;16.922;2024-02-14T10:27:38;9.82;;;6.25;;
76667;SDS011;65585;51.166;16.922;2024-02-14T10:30:05;10.48;;;5.47;;
76667;SDS011;65585;51.166;16.922;2024-02-14T10:32:44;8.07;;;5.72;;
76667;SDS011;65585;51.166;16.922;2024-02-14T10:35:13;9.50;;;6.28;;
76667;SDS011;65585;51.166;16.922;2024-02-14T10:40:08;14.70;;;8.18;;
76667;SDS011;65585;51.166;16.922;2024-02-14T10:42:37;16.83;;;7.10;;
76667;SDS011;65585;51.166;16.922;2024-02-14T10:45:03;10.52;;;7.28;;
76667;SDS011;65585;51.166;16.922;2024-02-14T10:50:00;12.32;;;7.13;;
76667;SDS011;65585;51.166;16.922;2024-02-14T10:52:31;22.50;;;13.13;;
76667;SDS011;65585;51.166;16.922;2024-02-14T10:55:02;11.73;;;6.82;;
76667;SDS011;65585;51.166;16.922;2024-02-14T10:57:29;9.90;;;6.18;;
76667;SDS011;65585;51.166;16.922;2024-02-14T10:59:58;12.65;;;7.75;;
76667;SDS011;65585;51.166;16.922;2024-02-14T11:02:25;13.25;;;7.78;;
76667;SDS011;65585;51.166;16.922;2024-02-14T11:04:56;10.73;;;6.28;;
76667;SDS011;65585;51.166;16.922;2024-02-14T11:07:22;10.43;;;6.22;;
76667;SDS011;65585;51.166;16.922;2024-02-14T11:10:05;12.45;;;6.72;;
76667;SDS011;65585;51.166;16.922;2024-02-14T11:12:35;12.15;;;6.53;;
76667;SDS011;65585;51.166;16.922;2024-02-14T11:18:05;11.35;;;6.10;;
76667;SDS011;65585;51.166;16.922;2024-02-14T11:20:35;11.57;;;6.40;;
76667;SDS011;65585;51.166;16.922;2024-02-14T11:23:02;8.95;;;5.93;;
76667;SDS011;65585;51.166;16.922;2024-02-14T11:25:29;9.57;;;5.50;;
76667;SDS011;65585;51.166;16.922;2024-02-14T11:27:57;12.65;;;5.85;;
76667;SDS011;65585;51.166;16.922;2024-02-14T11:30:34;9.23;;;5.35;;
76667;SDS011;65585;51.166;16.922;2024-02-14T11:35:46;9.85;;;5.30;;
76667;SDS011;65585;51.166;16.922;2024-02-14T11:38:17;9.80;;;5.10;;
76667;SDS011;65585;51.166;16.922;2024-02-14T11:40:44;7.00;;;4.15;;
76667;SDS011;65585;51.166;16.922;2024-02-14T11:43:11;7.32;;;4.55;;
76667;SDS011;65585;51.166;16.922;2024-02-14T11:45:45;7.30;;;3.97;;
76667;SDS011;65585;51.166;16.922;2024-02-14T11:48:15;7.03;;;4.43;;
76667;SDS011;65585;51.166;16.922;2024-02-14T11:50:42;7.75;;;4.28;;
76667;SDS011;65585;51.166;16.922;2024-02-14T11:55:37;7.82;;;3.70;;
76667;SDS011;65585;51.166;16.922;2024-02-14T11:58:24;7.10;;;3.78;;
76667;SDS011;65585;51.166;16.922;2024-02-14T12:00:51;6.53;;;3.63;;
76667;SDS011;65585;51.166;16.922;2024-02-14T12:03:20;9.13;;;4.53;;
76667;SDS011;65585;51.166;16.922;2024-02-14T12:05:52;8.07;;;4.18;;
76667;SDS011;65585;51.166;16.922;2024-02-14T12:08:18;11.38;;;4.32;;
76667;SDS011;65585;51.166;16.922;2024-02-14T12:10:45;6.47;;;4.13;;
76667;SDS011;65585;51.166;16.922;2024-02-14T12:13:15;5.95;;;3.13;;
76667;SDS011;65585;51.166;16.922;2024-02-14T12:15:47;4.72;;;3.10;;
76667;SDS011;65585;51.166;16.922;2024-02-14T12:18:14;6.50;;;3.20;;
76667;SDS011;65585;51.166;16.922;2024-02-14T12:20:42;5.35;;;3.35;;
76667;SDS011;65585;51.166;16.922;2024-02-14T12:23:15;6.80;;;3.30;;
76667;SDS011;65585;51.166;16.922;2024-02-14T12:25:43;6.97;;;3.28;;
76667;SDS011;65585;51.166;16.922;2024-02-14T12:28:19;5.60;;;3.05;;
76667;SDS011;65585;51.166;16.922;2024-02-14T12:30:46;3.85;;;2.67;;
76667;SDS011;65585;51.166;16.922;2024-02-14T12:33:21;3.83;;;2.60;;
76667;SDS011;65585;51.166;16.922;2024-02-14T12:35:50;5.25;;;3.10;;
76667;SDS011;65585;51.166;16.922;2024-02-14T12:38:20;11.15;;;3.10;;
76667;SDS011;65585;51.166;16.922;2024-02-14T12:40:48;7.60;;;4.40;;
76667;SDS011;65585;51.166;16.922;2024-02-14T12:43:15;10.02;;;6.38;;
76667;SDS011;65585;51.166;16.922;2024-02-14T12:45:44;6.82;;;3.42;;
76667;SDS011;65585;51.166;16.922;2024-02-14T12:48:10;5.38;;;2.92;;
76667;SDS011;65585;51.166;16.922;2024-02-14T12:50:41;5.45;;;2.50;;
76667;SDS011;65585;51.166;16.922;2024-02-14T12:53:13;9.23;;;4.05;;
76667;SDS011;65585;51.166;16.922;2024-02-14T12:55:40;6.45;;;3.30;;
76667;SDS011;65585;51.166;16.922;2024-02-14T12:58:05;5.50;;;3.70;;
76667;SDS011;65585;51.166;16.922;2024-02-14T13:00:32;6.55;;;3.08;;
76667;SDS011;65585;51.166;16.922;2024-02-14T13:02:58;6.22;;;3.65;;
76667;SDS011;65585;51.166;16.922;2024-02-14T13:05:25;7.47;;;3.90;;
76667;SDS011;65585;51.166;16.922;2024-02-14T13:07:52;7.15;;;4.00;;
76667;SDS011;65585;51.166;16.922;2024-02-14T13:10:18;5.93;;;3.90;;
76667;SDS011;65585;51.166;16.922;2024-02-14T13:12:44;6.82;;;3.35;;
76667;SDS011;65585;51.166;16.922;2024-02-14T13:15:11;4.60;;;3.40;;
76667;SDS011;65585;51.166;16.922;2024-02-14T13:17:37;7.72;;;3.83;;
76667;SDS011;65585;51.166;16.922;2024-02-14T13:20:04;5.55;;;4.38;;
76667;SDS011;65585;51.166;16.922;2024-02-14T13:22:30;5.93;;;3.58;;
76667;SDS011;65585;51.166;16.922;2024-02-14T13:24:58;5.78;;;3.67;;
76667;SDS011;65585;51.166;16.922;2024-02-14T13:27:26;7.00;;;3.60;;
76667;SDS011;65585;51.166;16.922;2024-02-14T13:29:52;6.28;;;3.42;;
76667;SDS011;65585;51.166;16.922;2024-02-14T13:32:18;7.10;;;3.35;;
76667;SDS011;65585;51.166;16.922;2024-02-14T13:34:44;6.57;;;3.30;;
76667;SDS011;65585;51.166;16.922;2024-02-14T13:37:10;5.25;;;2.67;;
76667;SDS011;65585;51.166;16.922;2024-02-14T13:39:36;5.63;;;2.72;;
76667;SDS011;65585;51.166;16.922;2024-02-14T13:42:02;5.13;;;3.60;;
76667;SDS011;65585;51.166;16.922;2024-02-14T13:44:28;3.97;;;2.63;;
76667;SDS011;65585;51.166;16.922;2024-02-14T13:46:55;5.25;;;3.53;;
76667;SDS011;65585;51.166;16.922;2024-02-14T13:49:21;8.27;;;2.97;;
76667;SDS011;65585;51.166;16.922;2024-02-14T13:51:51;4.35;;;3.05;;
76667;SDS011;65585;51.166;16.922;2024-02-14T13:54:18;4.93;;;3.05;;
76667;SDS011;65585;51.166;16.922;2024-02-14T13:56:44;7.43;;;3.05;;
76667;SDS011;65585;51.166;16.922;2024-02-14T13:59:11;9.52;;;2.90;;
76667;SDS011;65585;51.166;16.922;2024-02-14T14:01:37;6.70;;;3.70;;
76667;SDS011;65585;51.166;16.922;2024-02-14T14:04:03;7.68;;;4.20;;
76667;SDS011;65585;51.166;16.922;2024-02-14T14:06:29;6.05;;;3.55;;
76667;SDS011;65585;51.166;16.922;2024-02-14T14:08:56;5.57;;;3.30;;
76667;SDS011;65585;51.166;16.922;2024-02-14T14:11:22;5.97;;;3.08;;
76667;SDS011;65585;51.166;16.922;2024-02-14T14:13:48;4.35;;;2.63;;
76667;SDS011;65585;51.166;16.922;2024-02-14T14:16:14;10.02;;;4.30;;
76667;SDS011;65585;51.166;16.922;2024-02-14T14:18:40;7.00;;;3.80;;
76667;SDS011;65585;51.166;16.922;2024-02-14T14:21:06;10.98;;;4.82;;
76667;SDS011;65585;51.166;16.922;2024-02-14T14:23:32;9.50;;;5.22;;
76667;SDS011;65585;51.166;16.922;2024-02-14T14:25:59;6.00;;;3.97;;
76667;SDS011;65585;51.166;16.922;2024-02-14T14:28:26;6.70;;;3.78;;
76667;SDS011;65585;51.166;16.922;2024-02-14T14:30:55;10.13;;;6.13;;
76667;SDS011;65585;51.166;16.922;2024-02-14T14:33:22;8.00;;;4.30;;
76667;SDS011;65585;51.166;16.922;2024-02-14T14:35:48;6.70;;;3.97;;